sensor_id;sensor_type;location;lat;lon;timestamp;pressure;altitude;pressure_sealevel;temperature;humidity
37170;BME280;23062;13.952;100.608;2023-02-10T00:01:37;1011.34;;;30.24;64.67
37170;BME280;23062;13.952;100.608;2023-02-10T00:06:03;1011.40;;;30.24;64.64
37170;BME280;23062;13.952;100.608;2023-02-10T00:10:29;1011.51;;;30.23;64.78
37170;BME280;23062;13.952;100.608;2023-02-10T00:14:55;1011.55;;;30.24;64.70
37170;BME280;23062;13.952;100.608;2023-02-10T00:19:21;1011.71;;;30.22;64.80
37170;BME280;23062;13.952;100.608;2023-02-10T00:23:47;1011.72;;;30.22;64.90
37170;BME280;23062;13.952;100.608;2023-02-10T00:28:17;1011.78;;;30.23;64.89
37170;BME280;23062;13.952;100.608;2023-02-10T00:32:42;1011.85;;;30.17;65.65
37170;BME280;23062;13.952;100.608;2023-02-10T00:37:09;1011.97;;;30.17;65.97
37170;BME280;23062;13.952;100.608;2023-02-10T00:41:35;1012.10;;;30.13;66.00
37170;BME280;23062;13.952;100.608;2023-02-10T00:46:01;1012.11;;;30.12;66.01
37170;BME280;23062;13.952;100.608;2023-02-10T00:50:29;1012.18;;;30.11;66.31
37170;BME280;23062;13.952;100.608;2023-02-10T00:54:54;1012.18;;;30.07;66.44
37170;BME280;23062;13.952;100.608;2023-02-10T00:59:20;1012.19;;;30.08;66.54
37170;BME280;23062;13.952;100.608;2023-02-10T01:03:45;1012.19;;;30.10;66.64
37170;BME280;23062;13.952;100.608;2023-02-10T01:08:12;1012.25;;;30.13;66.45
37170;BME280;23062;13.952;100.608;2023-02-10T01:12:44;1012.29;;;30.15;66.43
37170;BME280;23062;13.952;100.608;2023-02-10T01:17:11;1012.32;;;30.08;66.46
37170;BME280;23062;13.952;100.608;2023-02-10T01:21:37;1012.41;;;30.08;66.62
37170;BME280;23062;13.952;100.608;2023-02-10T01:26:03;1012.53;;;30.08;66.43
37170;BME280;23062;13.952;100.608;2023-02-10T01:30:29;1012.63;;;30.14;66.38
37170;BME280;23062;13.952;100.608;2023-02-10T01:34:54;1012.67;;;30.04;66.43
37170;BME280;23062;13.952;100.608;2023-02-10T01:39:21;1012.80;;;30.09;66.27
37170;BME280;23062;13.952;100.608;2023-02-10T01:44:01;1012.83;;;30.15;66.25
37170;BME280;23062;13.952;100.608;2023-02-10T01:48:30;1012.91;;;30.18;65.98
37170;BME280;23062;13.952;100.608;2023-02-10T01:52:57;1012.96;;;30.18;65.99
37170;BME280;23062;13.952;100.608;2023-02-10T01:57:23;1013.03;;;30.20;65.78
37170;BME280;23062;13.952;100.608;2023-02-10T02:01:50;1013.11;;;30.22;65.63
37170;BME280;23062;13.952;100.608;2023-02-10T02:06:15;1013.16;;;30.24;65.42
37170;BME280;23062;13.952;100.608;2023-02-10T02:11:02;1013.16;;;30.28;65.33
37170;BME280;23062;13.952;100.608;2023-02-10T02:15:36;1013.25;;;30.30;65.11
37170;BME280;23062;13.952;100.608;2023-02-10T02:30:01;1013.34;;;30.26;64.24
37170;BME280;23062;13.952;100.608;2023-02-10T02:39:03;1013.32;;;30.30;63.57
37170;BME280;23062;13.952;100.608;2023-02-10T02:43:29;1013.33;;;30.36;63.75
37170;BME280;23062;13.952;100.608;2023-02-10T02:53:03;1013.28;;;30.37;63.30
37170;BME280;23062;13.952;100.608;2023-02-10T02:57:30;1013.33;;;30.44;64.01
37170;BME280;23062;13.952;100.608;2023-02-10T03:02:03;1013.31;;;30.40;63.32
37170;BME280;23062;13.952;100.608;2023-02-10T03:06:25;1013.36;;;30.45;62.57
37170;BME280;23062;13.952;100.608;2023-02-10T03:10:54;1013.31;;;30.52;62.03
37170;BME280;23062;13.952;100.608;2023-02-10T03:15:24;1013.34;;;30.55;62.12
37170;BME280;23062;13.952;100.608;2023-02-10T03:19:56;1013.30;;;30.55;61.91
37170;BME280;23062;13.952;100.608;2023-02-10T03:24:21;1013.21;;;30.45;63.47
37170;BME280;23062;13.952;100.608;2023-02-10T03:28:46;1013.16;;;30.39;62.87
37170;BME280;23062;13.952;100.608;2023-02-10T03:33:12;1013.11;;;30.42;61.93
37170;BME280;23062;13.952;100.608;2023-02-10T03:37:37;1013.07;;;30.47;61.39
37170;BME280;23062;13.952;100.608;2023-02-10T03:42:05;1013.04;;;30.48;61.58
37170;BME280;23062;13.952;100.608;2023-02-10T03:46:31;1012.96;;;30.56;61.43
37170;BME280;23062;13.952;100.608;2023-02-10T03:51:00;1012.85;;;30.60;61.61
37170;BME280;23062;13.952;100.608;2023-02-10T03:55:26;1012.86;;;30.76;60.88
37170;BME280;23062;13.952;100.608;2023-02-10T03:59:51;1012.78;;;30.74;60.72
37170;BME280;23062;13.952;100.608;2023-02-10T04:04:17;1012.75;;;30.75;60.15
37170;BME280;23062;13.952;100.608;2023-02-10T04:08:49;1012.73;;;30.80;59.52
37170;BME280;23062;13.952;100.608;2023-02-10T04:13:15;1012.70;;;30.77;58.90
37170;BME280;23062;13.952;100.608;2023-02-10T04:17:40;1012.57;;;30.78;58.94
37170;BME280;23062;13.952;100.608;2023-02-10T04:22:09;1012.63;;;30.82;58.37
37170;BME280;23062;13.952;100.608;2023-02-10T04:26:35;1012.49;;;30.77;58.45
37170;BME280;23062;13.952;100.608;2023-02-10T04:31:00;1012.49;;;30.82;58.01
37170;BME280;23062;13.952;100.608;2023-02-10T04:35:27;1012.37;;;30.80;58.49
37170;BME280;23062;13.952;100.608;2023-02-10T04:39:52;1012.27;;;30.92;58.01
37170;BME280;23062;13.952;100.608;2023-02-10T04:44:18;1012.19;;;31.00;57.41
37170;BME280;23062;13.952;100.608;2023-02-10T04:48:43;1012.11;;;31.03;57.11
37170;BME280;23062;13.952;100.608;2023-02-10T04:53:09;1012.09;;;30.90;57.41
37170;BME280;23062;13.952;100.608;2023-02-10T04:57:35;1011.96;;;30.88;57.80
37170;BME280;23062;13.952;100.608;2023-02-10T05:02:00;1011.89;;;30.85;58.00
37170;BME280;23062;13.952;100.608;2023-02-10T05:06:28;1011.79;;;30.93;57.35
37170;BME280;23062;13.952;100.608;2023-02-10T05:10:54;1011.68;;;30.99;56.56
37170;BME280;23062;13.952;100.608;2023-02-10T05:15:19;1011.62;;;31.11;55.98
37170;BME280;23062;13.952;100.608;2023-02-10T05:19:45;1011.53;;;31.16;55.97
37170;BME280;23062;13.952;100.608;2023-02-10T05:24:13;1011.49;;;31.20;55.75
37170;BME280;23062;13.952;100.608;2023-02-10T05:28:40;1011.39;;;31.18;55.82
37170;BME280;23062;13.952;100.608;2023-02-10T05:33:05;1011.32;;;31.13;56.17
37170;BME280;23062;13.952;100.608;2023-02-10T05:37:31;1011.25;;;31.14;56.73
37170;BME280;23062;13.952;100.608;2023-02-10T05:41:58;1011.17;;;31.09;57.04
37170;BME280;23062;13.952;100.608;2023-02-10T05:46:24;1011.12;;;31.14;57.01
37170;BME280;23062;13.952;100.608;2023-02-10T05:50:52;1011.00;;;31.10;57.15
37170;BME280;23062;13.952;100.608;2023-02-10T05:55:17;1010.93;;;31.16;56.80
37170;BME280;23062;13.952;100.608;2023-02-10T05:59:43;1010.76;;;31.18;56.46
37170;BME280;23062;13.952;100.608;2023-02-10T06:04:12;1010.71;;;31.25;55.67
37170;BME280;23062;13.952;100.608;2023-02-10T06:08:38;1010.59;;;31.27;55.36
37170;BME280;23062;13.952;100.608;2023-02-10T06:13:04;1010.53;;;31.31;55.14
37170;BME280;23062;13.952;100.608;2023-02-10T06:17:31;1010.43;;;31.26;55.43
37170;BME280;23062;13.952;100.608;2023-02-10T06:21:57;1010.32;;;31.39;54.71
37170;BME280;23062;13.952;100.608;2023-02-10T06:26:22;1010.20;;;31.34;55.20
37170;BME280;23062;13.952;100.608;2023-02-10T06:30:51;1010.09;;;31.56;53.12
37170;BME280;23062;13.952;100.608;2023-02-10T06:35:20;1010.05;;;31.47;54.27
37170;BME280;23062;13.952;100.608;2023-02-10T06:39:46;1010.00;;;31.37;54.22
37170;BME280;23062;13.952;100.608;2023-02-10T06:44:11;1009.90;;;31.32;54.20
37170;BME280;23062;13.952;100.608;2023-02-10T06:48:37;1009.78;;;31.41;53.57
37170;BME280;23062;13.952;100.608;2023-02-10T06:53:02;1009.71;;;31.30;54.52
37170;BME280;23062;13.952;100.608;2023-02-10T06:57:30;1009.64;;;31.25;55.18
37170;BME280;23062;13.952;100.608;2023-02-10T07:02:01;1009.52;;;31.40;53.68
37170;BME280;23062;13.952;100.608;2023-02-10T07:06:29;1009.36;;;31.35;53.83
37170;BME280;23062;13.952;100.608;2023-02-10T07:10:58;1009.36;;;31.34;54.18
37170;BME280;23062;13.952;100.608;2023-02-10T07:15:24;1009.24;;;31.48;53.03
37170;BME280;23062;13.952;100.608;2023-02-10T07:19:49;1009.20;;;31.46;53.31
37170;BME280;23062;13.952;100.608;2023-02-10T07:24:14;1009.05;;;31.41;54.03
37170;BME280;23062;13.952;100.608;2023-02-10T07:28:40;1009.00;;;31.32;54.54
37170;BME280;23062;13.952;100.608;2023-02-10T07:33:05;1008.89;;;31.41;53.66
37170;BME280;23062;13.952;100.608;2023-02-10T07:37:31;1008.75;;;31.39;53.80
37170;BME280;23062;13.952;100.608;2023-02-10T07:41:56;1008.68;;;31.45;53.48
37170;BME280;23062;13.952;100.608;2023-02-10T07:46:21;1008.69;;;31.41;53.70
37170;BME280;23062;13.952;100.608;2023-02-10T07:50:50;1008.61;;;31.54;52.96
37170;BME280;23062;13.952;100.608;2023-02-10T07:55:18;1008.54;;;31.55;52.98
37170;BME280;23062;13.952;100.608;2023-02-10T07:59:43;1008.50;;;31.55;53.08
37170;BME280;23062;13.952;100.608;2023-02-10T08:04:10;1008.49;;;31.57;52.65
37170;BME280;23062;13.952;100.608;2023-02-10T08:08:35;1008.37;;;31.56;52.41
37170;BME280;23062;13.952;100.608;2023-02-10T08:13:01;1008.35;;;31.52;52.70
37170;BME280;23062;13.952;100.608;2023-02-10T08:17:27;1008.27;;;31.68;51.52
37170;BME280;23062;13.952;100.608;2023-02-10T08:21:54;1008.18;;;31.53;52.27
37170;BME280;23062;13.952;100.608;2023-02-10T08:26:19;1008.23;;;31.57;51.86
37170;BME280;23062;13.952;100.608;2023-02-10T08:30:48;1008.14;;;31.47;52.69
37170;BME280;23062;13.952;100.608;2023-02-10T08:35:13;1008.10;;;31.53;51.74
37170;BME280;23062;13.952;100.608;2023-02-10T08:39:42;1008.07;;;31.57;51.51
37170;BME280;23062;13.952;100.608;2023-02-10T08:44:08;1008.02;;;31.47;52.14
37170;BME280;23062;13.952;100.608;2023-02-10T08:48:38;1007.94;;;31.54;52.02
37170;BME280;23062;13.952;100.608;2023-02-10T08:53:04;1007.92;;;31.57;52.00
37170;BME280;23062;13.952;100.608;2023-02-10T08:57:29;1007.86;;;31.54;52.22
37170;BME280;23062;13.952;100.608;2023-02-10T09:01:55;1007.80;;;31.65;51.60
37170;BME280;23062;13.952;100.608;2023-02-10T09:06:27;1007.80;;;31.61;51.97
37170;BME280;23062;13.952;100.608;2023-02-10T09:10:56;1007.74;;;31.61;51.60
37170;BME280;23062;13.952;100.608;2023-02-10T09:15:24;1007.63;;;31.55;52.42
37170;BME280;23062;13.952;100.608;2023-02-10T09:19:52;1007.63;;;31.55;52.12
37170;BME280;23062;13.952;100.608;2023-02-10T09:24:18;1007.61;;;31.61;51.70
37170;BME280;23062;13.952;100.608;2023-02-10T09:28:43;1007.62;;;31.61;52.03
37170;BME280;23062;13.952;100.608;2023-02-10T09:33:15;1007.72;;;31.52;52.65
37170;BME280;23062;13.952;100.608;2023-02-10T09:37:40;1007.74;;;31.55;51.84
37170;BME280;23062;13.952;100.608;2023-02-10T09:56:36;1008.02;;;31.51;52.42
37170;BME280;23062;13.952;100.608;2023-02-10T10:10:46;1008.02;;;31.55;51.81
37170;BME280;23062;13.952;100.608;2023-02-10T10:15:17;1008.03;;;31.61;51.26
37170;BME280;23062;13.952;100.608;2023-02-10T10:24:50;1008.14;;;31.61;51.14
37170;BME280;23062;13.952;100.608;2023-02-10T10:33:51;1008.14;;;31.55;51.80
37170;BME280;23062;13.952;100.608;2023-02-10T10:38:22;1008.21;;;31.54;51.43
37170;BME280;23062;13.952;100.608;2023-02-10T10:42:50;1008.22;;;31.52;52.22
37170;BME280;23062;13.952;100.608;2023-02-10T10:47:25;1008.23;;;31.54;51.80
37170;BME280;23062;13.952;100.608;2023-02-10T10:51:47;1008.25;;;31.53;52.85
37170;BME280;23062;13.952;100.608;2023-02-10T11:01:01;1008.29;;;31.55;52.79
37170;BME280;23062;13.952;100.608;2023-02-10T11:05:29;1008.49;;;31.48;53.61
37170;BME280;23062;13.952;100.608;2023-02-10T11:09:55;1008.56;;;31.43;53.62
37170;BME280;23062;13.952;100.608;2023-02-10T11:14:24;1008.54;;;31.40;53.94
37170;BME280;23062;13.952;100.608;2023-02-10T11:19:00;1008.62;;;31.37;53.77
37170;BME280;23062;13.952;100.608;2023-02-10T11:23:28;1008.66;;;31.37;53.56
37170;BME280;23062;13.952;100.608;2023-02-10T11:27:57;1008.72;;;31.35;53.29
37170;BME280;23062;13.952;100.608;2023-02-10T11:32:31;1008.80;;;31.31;53.39
37170;BME280;23062;13.952;100.608;2023-02-10T11:37:09;1008.91;;;31.30;53.45
37170;BME280;23062;13.952;100.608;2023-02-10T11:41:28;1008.93;;;31.27;53.77
37170;BME280;23062;13.952;100.608;2023-02-10T11:45:57;1009.00;;;31.26;53.78
37170;BME280;23062;13.952;100.608;2023-02-10T11:50:28;1009.02;;;31.24;53.78
37170;BME280;23062;13.952;100.608;2023-02-10T11:54:54;1009.03;;;31.23;53.52
37170;BME280;23062;13.952;100.608;2023-02-10T11:59:29;1009.05;;;31.21;53.61
37170;BME280;23062;13.952;100.608;2023-02-10T12:04:00;1009.09;;;31.25;54.16
37170;BME280;23062;13.952;100.608;2023-02-10T12:18:33;1009.29;;;31.27;54.80
37170;BME280;23062;13.952;100.608;2023-02-10T12:32:43;1009.32;;;31.22;54.75
37170;BME280;23062;13.952;100.608;2023-02-10T12:42:05;1009.44;;;31.17;54.94
37170;BME280;23062;13.952;100.608;2023-02-10T12:46:44;1009.48;;;31.19;54.94
37170;BME280;23062;13.952;100.608;2023-02-10T12:56:26;1009.68;;;31.15;55.38
37170;BME280;23062;13.952;100.608;2023-02-10T13:01:00;1009.80;;;31.13;55.28
37170;BME280;23062;13.952;100.608;2023-02-10T13:05:25;1009.93;;;31.17;55.37
37170;BME280;23062;13.952;100.608;2023-02-10T13:14:32;1010.14;;;31.12;55.85
37170;BME280;23062;13.952;100.608;2023-02-10T13:23:37;1010.31;;;31.10;56.44
37170;BME280;23062;13.952;100.608;2023-02-10T13:33:01;1010.39;;;31.06;57.13
37170;BME280;23062;13.952;100.608;2023-02-10T13:37:44;1010.44;;;31.24;56.97
37170;BME280;23062;13.952;100.608;2023-02-10T13:42:24;1010.59;;;31.26;57.18
37170;BME280;23062;13.952;100.608;2023-02-10T13:46:40;1010.60;;;31.21;57.57
37170;BME280;23062;13.952;100.608;2023-02-10T13:51:07;1010.63;;;31.25;57.26
37170;BME280;23062;13.952;100.608;2023-02-10T13:55:40;1010.72;;;31.22;57.77
37170;BME280;23062;13.952;100.608;2023-02-10T14:00:22;1010.81;;;31.22;58.17
37170;BME280;23062;13.952;100.608;2023-02-10T14:04:50;1010.87;;;31.24;58.28
37170;BME280;23062;13.952;100.608;2023-02-10T14:09:21;1010.92;;;31.28;58.12
37170;BME280;23062;13.952;100.608;2023-02-10T14:14:04;1010.95;;;31.25;58.18
37170;BME280;23062;13.952;100.608;2023-02-10T14:18:35;1011.06;;;31.26;58.34
37170;BME280;23062;13.952;100.608;2023-02-10T14:23:15;1011.14;;;31.25;58.88
37170;BME280;23062;13.952;100.608;2023-02-10T14:27:47;1011.17;;;31.28;58.45
37170;BME280;23062;13.952;100.608;2023-02-10T14:32:20;1011.19;;;31.21;59.21
37170;BME280;23062;13.952;100.608;2023-02-10T14:36:55;1011.27;;;31.21;59.10
37170;BME280;23062;13.952;100.608;2023-02-10T14:41:22;1011.25;;;31.22;59.15
37170;BME280;23062;13.952;100.608;2023-02-10T14:45:48;1011.26;;;31.25;59.42
37170;BME280;23062;13.952;100.608;2023-02-10T14:50:31;1011.27;;;31.23;59.20
37170;BME280;23062;13.952;100.608;2023-02-10T14:54:59;1011.29;;;31.24;59.38
37170;BME280;23062;13.952;100.608;2023-02-10T14:59:30;1011.29;;;31.22;59.02
37170;BME280;23062;13.952;100.608;2023-02-10T15:03:56;1011.26;;;31.23;59.14
37170;BME280;23062;13.952;100.608;2023-02-10T15:08:34;1011.38;;;31.21;59.36
37170;BME280;23062;13.952;100.608;2023-02-10T15:13:00;1011.42;;;31.20;59.48
37170;BME280;23062;13.952;100.608;2023-02-10T15:17:37;1011.40;;;31.16;59.54
37170;BME280;23062;13.952;100.608;2023-02-10T15:22:28;1011.46;;;31.17;59.50
37170;BME280;23062;13.952;100.608;2023-02-10T15:26:31;1011.52;;;31.19;59.32
37170;BME280;23062;13.952;100.608;2023-02-10T15:31:00;1011.52;;;31.18;59.43
37170;BME280;23062;13.952;100.608;2023-02-10T15:35:27;1011.47;;;31.17;59.47
37170;BME280;23062;13.952;100.608;2023-02-10T15:39:57;1011.54;;;31.14;59.48
37170;BME280;23062;13.952;100.608;2023-02-10T15:44:40;1011.51;;;31.16;59.35
37170;BME280;23062;13.952;100.608;2023-02-10T15:49:08;1011.50;;;31.16;59.27
37170;BME280;23062;13.952;100.608;2023-02-10T15:53:33;1011.49;;;31.17;59.22
37170;BME280;23062;13.952;100.608;2023-02-10T15:57:59;1011.53;;;31.14;59.25
37170;BME280;23062;13.952;100.608;2023-02-10T16:02:30;1011.51;;;31.17;59.21
37170;BME280;23062;13.952;100.608;2023-02-10T16:06:56;1011.59;;;31.12;59.41
37170;BME280;23062;13.952;100.608;2023-02-10T16:11:23;1011.61;;;31.05;59.54
37170;BME280;23062;13.952;100.608;2023-02-10T16:15:50;1011.62;;;31.08;59.51
37170;BME280;23062;13.952;100.608;2023-02-10T16:20:19;1011.57;;;31.07;59.51
37170;BME280;23062;13.952;100.608;2023-02-10T16:24:44;1011.53;;;31.08;59.55
37170;BME280;23062;13.952;100.608;2023-02-10T16:29:22;1011.49;;;31.11;59.51
37170;BME280;23062;13.952;100.608;2023-02-10T16:33:49;1011.48;;;31.11;59.48
37170;BME280;23062;13.952;100.608;2023-02-10T16:38:14;1011.53;;;31.12;59.57
37170;BME280;23062;13.952;100.608;2023-02-10T16:42:39;1011.48;;;31.10;59.61
37170;BME280;23062;13.952;100.608;2023-02-10T16:47:15;1011.45;;;31.10;59.62
37170;BME280;23062;13.952;100.608;2023-02-10T16:51:37;1011.48;;;31.04;59.91
37170;BME280;23062;13.952;100.608;2023-02-10T16:56:03;1011.55;;;31.08;59.80
37170;BME280;23062;13.952;100.608;2023-02-10T17:00:31;1011.52;;;31.04;59.97
37170;BME280;23062;13.952;100.608;2023-02-10T17:04:57;1011.50;;;31.00;60.11
37170;BME280;23062;13.952;100.608;2023-02-10T17:09:24;1011.47;;;30.99;60.12
37170;BME280;23062;13.952;100.608;2023-02-10T17:13:50;1011.49;;;31.01;60.03
37170;BME280;23062;13.952;100.608;2023-02-10T17:18:17;1011.45;;;31.06;59.90
37170;BME280;23062;13.952;100.608;2023-02-10T17:22:47;1011.43;;;31.07;59.85
37170;BME280;23062;13.952;100.608;2023-02-10T17:27:13;1011.39;;;31.03;59.97
37170;BME280;23062;13.952;100.608;2023-02-10T17:31:38;1011.37;;;31.05;59.78
37170;BME280;23062;13.952;100.608;2023-02-10T17:36:04;1011.28;;;31.02;59.88
37170;BME280;23062;13.952;100.608;2023-02-10T17:40:30;1011.25;;;31.05;59.75
37170;BME280;23062;13.952;100.608;2023-02-10T17:44:56;1011.18;;;31.01;59.81
37170;BME280;23062;13.952;100.608;2023-02-10T17:49:28;1011.11;;;31.02;59.84
37170;BME280;23062;13.952;100.608;2023-02-10T17:53:59;1011.12;;;30.99;59.99
37170;BME280;23062;13.952;100.608;2023-02-10T17:58:25;1010.97;;;31.02;59.92
37170;BME280;23062;13.952;100.608;2023-02-10T18:02:55;1010.96;;;31.03;59.87
37170;BME280;23062;13.952;100.608;2023-02-10T18:07:20;1010.92;;;31.00;59.99
37170;BME280;23062;13.952;100.608;2023-02-10T18:11:53;1010.84;;;31.00;60.00
37170;BME280;23062;13.952;100.608;2023-02-10T18:16:18;1010.73;;;31.00;59.95
37170;BME280;23062;13.952;100.608;2023-02-10T18:20:45;1010.68;;;30.89;60.24
37170;BME280;23062;13.952;100.608;2023-02-10T18:25:10;1010.64;;;30.94;60.10
37170;BME280;23062;13.952;100.608;2023-02-10T18:29:36;1010.57;;;30.90;60.20
37170;BME280;23062;13.952;100.608;2023-02-10T18:34:04;1010.58;;;30.94;60.09
37170;BME280;23062;13.952;100.608;2023-02-10T18:38:30;1010.60;;;30.97;60.00
37170;BME280;23062;13.952;100.608;2023-02-10T18:42:55;1010.61;;;30.95;60.02
37170;BME280;23062;13.952;100.608;2023-02-10T18:47:21;1010.63;;;30.95;60.04
37170;BME280;23062;13.952;100.608;2023-02-10T18:51:47;1010.56;;;30.94;59.96
37170;BME280;23062;13.952;100.608;2023-02-10T18:56:16;1010.56;;;30.94;59.96
37170;BME280;23062;13.952;100.608;2023-02-10T19:00:42;1010.52;;;30.97;59.83
37170;BME280;23062;13.952;100.608;2023-02-10T19:05:07;1010.52;;;30.97;59.79
37170;BME280;23062;13.952;100.608;2023-02-10T19:09:34;1010.41;;;30.96;59.92
37170;BME280;23062;13.952;100.608;2023-02-10T19:14:00;1010.36;;;30.94;59.91
37170;BME280;23062;13.952;100.608;2023-02-10T19:18:26;1010.37;;;30.94;59.89
37170;BME280;23062;13.952;100.608;2023-02-10T19:22:52;1010.32;;;30.92;59.92
37170;BME280;23062;13.952;100.608;2023-02-10T19:27:20;1010.23;;;30.91;60.03
37170;BME280;23062;13.952;100.608;2023-02-10T19:31:45;1010.19;;;30.91;60.06
37170;BME280;23062;13.952;100.608;2023-02-10T19:36:19;1010.11;;;30.89;60.14
37170;BME280;23062;13.952;100.608;2023-02-10T19:40:45;1010.11;;;30.85;60.29
37170;BME280;23062;13.952;100.608;2023-02-10T19:45:10;1010.07;;;30.88;60.22
37170;BME280;23062;13.952;100.608;2023-02-10T19:49:36;1010.09;;;30.88;60.23
37170;BME280;23062;13.952;100.608;2023-02-10T19:54:01;1010.09;;;30.88;60.21
37170;BME280;23062;13.952;100.608;2023-02-10T19:58:30;1010.03;;;30.89;60.17
37170;BME280;23062;13.952;100.608;2023-02-10T20:02:55;1010.03;;;30.89;60.18
37170;BME280;23062;13.952;100.608;2023-02-10T20:07:21;1010.03;;;30.88;60.20
37170;BME280;23062;13.952;100.608;2023-02-10T20:11:56;1010.00;;;30.90;60.14
37170;BME280;23062;13.952;100.608;2023-02-10T20:16:22;1009.95;;;30.90;60.13
37170;BME280;23062;13.952;100.608;2023-02-10T20:20:49;1009.97;;;30.89;60.26
37170;BME280;23062;13.952;100.608;2023-02-10T20:25:18;1009.93;;;30.88;60.34
37170;BME280;23062;13.952;100.608;2023-02-10T20:29:45;1009.98;;;30.87;60.52
37170;BME280;23062;13.952;100.608;2023-02-10T20:34:11;1009.90;;;30.85;60.57
37170;BME280;23062;13.952;100.608;2023-02-10T20:38:36;1009.88;;;30.85;60.63
37170;BME280;23062;13.952;100.608;2023-02-10T20:43:01;1009.88;;;30.85;60.62
37170;BME280;23062;13.952;100.608;2023-02-10T20:47:29;1009.91;;;30.84;60.72
37170;BME280;23062;13.952;100.608;2023-02-10T20:51:54;1009.94;;;30.84;60.71
37170;BME280;23062;13.952;100.608;2023-02-10T20:56:20;1009.90;;;30.83;60.66
37170;BME280;23062;13.952;100.608;2023-02-10T21:00:46;1009.93;;;30.83;60.67
37170;BME280;23062;13.952;100.608;2023-02-10T21:05:11;1009.91;;;30.82;60.76
37170;BME280;23062;13.952;100.608;2023-02-10T21:09:37;1009.96;;;30.81;60.85
37170;BME280;23062;13.952;100.608;2023-02-10T21:14:02;1009.99;;;30.82;60.91
37170;BME280;23062;13.952;100.608;2023-02-10T21:18:28;1010.02;;;30.81;60.85
37170;BME280;23062;13.952;100.608;2023-02-10T21:22:55;1009.99;;;30.79;60.97
37170;BME280;23062;13.952;100.608;2023-02-10T21:27:24;1009.99;;;30.79;60.94
37170;BME280;23062;13.952;100.608;2023-02-10T21:31:51;1009.97;;;30.76;61.18
37170;BME280;23062;13.952;100.608;2023-02-10T21:36:21;1010.05;;;30.77;61.18
37170;BME280;23062;13.952;100.608;2023-02-10T21:40:49;1010.07;;;30.76;61.31
37170;BME280;23062;13.952;100.608;2023-02-10T21:45:18;1010.13;;;30.65;61.64
37170;BME280;23062;13.952;100.608;2023-02-10T21:49:43;1010.16;;;30.52;62.16
37170;BME280;23062;13.952;100.608;2023-02-10T21:54:09;1010.19;;;30.53;62.18
37170;BME280;23062;13.952;100.608;2023-02-10T21:58:34;1010.15;;;30.50;62.54
37170;BME280;23062;13.952;100.608;2023-02-10T22:03:00;1010.24;;;30.45;62.92
37170;BME280;23062;13.952;100.608;2023-02-10T22:07:26;1010.21;;;30.46;63.03
37170;BME280;23062;13.952;100.608;2023-02-10T22:11:52;1010.26;;;30.44;63.25
37170;BME280;23062;13.952;100.608;2023-02-10T22:16:19;1010.28;;;30.45;63.45
37170;BME280;23062;13.952;100.608;2023-02-10T22:20:46;1010.33;;;30.45;64.08
37170;BME280;23062;13.952;100.608;2023-02-10T22:25:18;1010.34;;;30.38;64.61
37170;BME280;23062;13.952;100.608;2023-02-10T22:29:44;1010.42;;;30.43;64.85
37170;BME280;23062;13.952;100.608;2023-02-10T22:34:11;1010.39;;;30.38;64.94
37170;BME280;23062;13.952;100.608;2023-02-10T22:38:38;1010.44;;;30.38;65.12
37170;BME280;23062;13.952;100.608;2023-02-10T22:43:04;1010.48;;;30.31;65.43
37170;BME280;23062;13.952;100.608;2023-02-10T22:47:31;1010.54;;;30.33;65.28
37170;BME280;23062;13.952;100.608;2023-02-10T22:52:00;1010.58;;;30.35;65.32
37170;BME280;23062;13.952;100.608;2023-02-10T22:56:27;1010.64;;;30.33;65.42
37170;BME280;23062;13.952;100.608;2023-02-10T23:00:53;1010.65;;;30.32;65.48
37170;BME280;23062;13.952;100.608;2023-02-10T23:05:19;1010.71;;;30.32;65.02
37170;BME280;23062;13.952;100.608;2023-02-10T23:09:45;1010.78;;;30.28;65.35
37170;BME280;23062;13.952;100.608;2023-02-10T23:14:11;1010.90;;;30.24;65.53
37170;BME280;23062;13.952;100.608;2023-02-10T23:18:36;1010.98;;;30.25;65.52
37170;BME280;23062;13.952;100.608;2023-02-10T23:23:03;1011.03;;;30.21;65.64
37170;BME280;23062;13.952;100.608;2023-02-10T23:27:30;1011.09;;;30.17;64.78
37170;BME280;23062;13.952;100.608;2023-02-10T23:31:56;1011.12;;;29.74;66.06
37170;BME280;23062;13.952;100.608;2023-02-10T23:36:22;1011.16;;;29.62;68.42
37170;BME280;23062;13.952;100.608;2023-02-10T23:40:47;1011.24;;;29.42;68.74
37170;BME280;23062;13.952;100.608;2023-02-10T23:45:16;1011.34;;;29.31;68.56
37170;BME280;23062;13.952;100.608;2023-02-10T23:49:42;1011.41;;;29.24;68.76
37170;BME280;23062;13.952;100.608;2023-02-10T23:54:07;1011.41;;;29.24;68.79
37170;BME280;23062;13.952;100.608;2023-02-10T23:58:32;1011.53;;;29.25;68.96
